Time;durP1;ratioP1;P1;durP2;ratioP2;P2;SDS_P1;SDS_P2;PMS_P1;PMS_P2;Temp;Humidity;BMP_temperature;BMP_pressure;BME280_temperature;BME280_humidity;BME280_pressure;Samples;Min_cycle;Max_cycle;Signal;HPM_P1;HPM_P2
2022/02/26 00:01:23;;;;;;;;;27.00;21.50;;;;;4.23;100.00;101573.19;3725474;37;20073;-53
2022/02/26 00:03:57;;;;;;;;;20.75;19.25;;;;;4.24;100.00;101581.09;3725637;37;20203;-55
2022/02/26 00:06:27;;;;;;;;;21.50;20.50;;;;;4.28;100.00;101581.72;3725957;38;20171;-53
2022/02/26 00:08:55;;;;;;;;;21.25;19.50;;;;;4.33;100.00;101588.44;3725785;37;20089;-53
2022/02/26 00:11:27;;;;;;;;;21.00;20.25;;;;;4.31;100.00;101576.97;3725439;38;20071;-53
2022/02/26 00:13:54;;;;;;;;;25.50;25.50;;;;;4.35;100.00;101579.44;3725467;38;20146;-54
2022/02/26 00:16:22;;;;;;;;;26.00;24.75;;;;;4.36;100.00;101583.81;3725842;38;20167;-54
2022/02/26 00:18:50;;;;;;;;;22.00;20.25;;;;;4.31;100.00;101586.84;3725804;38;20393;-54
2022/02/26 00:21:19;;;;;;;;;22.75;21.00;;;;;4.32;100.00;101596.59;3725522;38;20042;-56
2022/02/26 00:23:47;;;;;;;;;25.00;24.25;;;;;4.30;100.00;101594.03;3725976;37;20387;-54
2022/02/26 00:26:16;;;;;;;;;20.75;20.00;;;;;4.29;100.00;101595.00;3725504;37;20055;-53
2022/02/26 00:28:45;;;;;;;;;21.75;20.00;;;;;4.28;100.00;101587.09;3725476;38;20091;-54
2022/02/26 00:31:13;;;;;;;;;19.00;18.00;;;;;4.33;100.00;101596.47;3725509;37;20152;-54
2022/02/26 00:33:42;;;;;;;;;20.00;19.00;;;;;4.34;100.00;101602.69;3725498;38;20027;-54
2022/02/26 00:36:11;;;;;;;;;25.25;21.75;;;;;4.34;100.00;101605.38;3725818;38;20391;-54
2022/02/26 00:38:38;;;;;;;;;19.25;19.00;;;;;4.32;100.00;101602.81;3725775;38;20158;-54
2022/02/26 00:41:07;;;;;;;;;23.75;23.25;;;;;4.12;100.00;101576.72;3725724;37;20031;-54
2022/02/26 00:43:34;;;;;;;;;23.25;20.25;;;;;4.39;100.00;101607.69;3725629;37;20011;-54
2022/02/26 00:46:07;;;;;;;;;19.25;18.50;;;;;4.39;100.00;101618.41;3725725;38;20415;-53
2022/02/26 00:51:25;;;;;;;;;26.00;21.75;;;;;4.32;100.00;101613.53;3725755;37;20410;-53
2022/02/26 00:54:14;;;;;;;;;22.00;22.00;;;;;4.35;100.00;101627.66;3725744;37;20131;-53
2022/02/26 00:56:43;;;;;;;;;18.75;17.25;;;;;4.30;100.00;101623.50;3725630;37;20100;-54
2022/02/26 00:59:12;;;;;;;;;27.75;27.50;;;;;4.38;100.00;101638.16;3725573;38;19980;-53
2022/02/26 01:01:40;;;;;;;;;17.25;16.75;;;;;4.37;100.00;101628.41;3725621;38;19989;-54
2022/02/26 01:04:08;;;;;;;;;25.25;25.25;;;;;4.36;100.00;101637.41;3724804;38;20342;-54
2022/02/26 01:06:42;;;;;;;;;23.75;23.00;;;;;4.39;100.00;101638.03;3725316;37;19977;-55
2022/02/26 01:09:16;;;;;;;;;11.75;11.75;;;;;4.40;100.00;101639.75;3725730;37;19986;-55
2022/02/26 01:11:47;;;;;;;;;21.25;20.75;;;;;4.43;100.00;101638.66;3725704;37;20220;-54
2022/02/26 01:14:19;;;;;;;;;22.75;22.75;;;;;4.44;100.00;101635.00;3725450;37;20357;-54
2022/02/26 01:16:50;;;;;;;;;23.25;21.75;;;;;4.49;100.00;101632.81;3725808;38;19970;-57
2022/02/26 01:19:20;;;;;;;;;23.75;22.75;;;;;4.54;100.00;101631.50;3725443;38;19964;-54
2022/02/26 01:21:49;;;;;;;;;26.25;23.50;;;;;4.47;100.00;101626.72;3725509;38;20253;-55
2022/02/26 01:24:16;;;;;;;;;21.75;20.50;;;;;4.48;100.00;101631.97;3725723;38;20064;-55
2022/02/26 01:26:46;;;;;;;;;23.50;23.00;;;;;4.44;100.00;101633.19;3725660;37;20376;-55
2022/02/26 01:29:19;;;;;;;;;23.50;21.75;;;;;4.47;100.00;101632.09;3725874;38;20080;-54
2022/02/26 01:31:50;;;;;;;;;24.75;22.50;;;;;4.41;100.00;101632.56;3725845;37;19999;-56
2022/02/26 01:34:23;;;;;;;;;24.75;22.25;;;;;4.40;100.00;101625.50;3725766;38;20036;-54
2022/02/26 01:36:54;;;;;;;;;25.50;24.25;;;;;4.43;100.00;101626.13;3725292;37;20346;-56
2022/02/26 01:39:24;;;;;;;;;22.00;20.75;;;;;4.46;100.00;101633.06;3704948;37;710937;-54
2022/02/26 01:41:53;;;;;;;;;19.75;19.75;;;;;4.48;100.00;101639.16;3725553;38;17785;-53
2022/02/26 01:44:21;;;;;;;;;19.25;19.00;;;;;4.50;100.00;101646.13;3725674;37;19931;-54
2022/02/26 01:46:50;;;;;;;;;24.25;21.25;;;;;4.49;100.00;101641.72;3725413;38;20376;-55
2022/02/26 01:49:19;;;;;;;;;20.50;20.00;;;;;4.52;100.00;101648.69;3725732;37;20021;-55
2022/02/26 01:51:50;;;;;;;;;20.50;20.00;;;;;4.54;100.00;101641.38;3725333;37;20043;-54
2022/02/26 01:54:19;;;;;;;;;27.50;26.00;;;;;4.55;100.00;101648.44;3725232;37;20327;-56
2022/02/26 01:56:49;;;;;;;;;25.25;24.00;;;;;4.55;100.00;101648.44;3725307;38;19966;-54
2022/02/26 01:59:20;;;;;;;;;24.75;22.50;;;;;4.53;100.00;101647.72;3725197;37;20298;-55
2022/02/26 02:01:51;;;;;;;;;23.75;23.50;;;;;4.53;100.00;101651.25;3725276;37;20352;-54
2022/02/26 02:04:19;;;;;;;;;24.00;23.00;;;;;4.50;100.00;101653.31;3725269;38;19923;-54
2022/02/26 02:06:48;;;;;;;;;28.75;26.00;;;;;4.48;100.00;101647.19;3725567;38;19962;-54
2022/02/26 02:09:24;;;;;;;;;20.75;20.75;;;;;4.45;100.00;101645.62;3725420;37;20165;-55
2022/02/26 02:11:52;;;;;;;;;25.00;24.00;;;;;4.34;100.00;101634.84;3725604;37;19982;-53
2022/02/26 02:14:21;;;;;;;;;29.50;27.00;;;;;4.40;100.00;101647.78;3725647;38;20076;-55
2022/02/26 02:16:52;;;;;;;;;22.25;21.50;;;;;4.37;100.00;101661.41;3725227;37;20326;-54
2022/02/26 02:19:25;;;;;;;;;19.00;17.75;;;;;4.35;100.00;101651.78;3725671;38;19896;-55
2022/02/26 02:21:58;;;;;;;;;24.75;23.50;;;;;4.38;100.00;101649.72;3725426;37;19954;-56
2022/02/26 02:24:25;;;;;;;;;18.25;18.25;;;;;4.37;100.00;101653.38;3725626;38;20374;-57
2022/02/26 02:26:54;;;;;;;;;19.25;18.50;;;;;4.36;100.00;101661.53;3725651;38;20001;-55
2022/02/26 02:29:23;;;;;;;;;23.50;21.50;;;;;4.36;100.00;101658.84;3725891;37;19999;-55
2022/02/26 02:31:51;;;;;;;;;21.75;20.50;;;;;4.33;100.00;101667.97;3725348;38;19858;-54
2022/02/26 02:34:19;;;;;;;;;19.25;19.00;;;;;4.37;100.00;101660.56;3725578;37;19973;-56
2022/02/26 02:36:48;;;;;;;;;23.75;17.00;;;;;4.37;100.00;101677.50;3725711;38;19979;-57
2022/02/26 02:39:16;;;;;;;;;23.50;22.75;;;;;4.37;100.00;101676.66;3725374;37;20287;-54
2022/02/26 02:41:43;;;;;;;;;19.25;18.00;;;;;4.37;100.00;101676.66;3725660;38;20251;-55
2022/02/26 02:44:14;;;;;;;;;19.00;18.00;;;;;4.33;100.00;101676.88;3725757;37;20009;-54
2022/02/26 02:46:42;;;;;;;;;19.25;19.00;;;;;4.33;100.00;101676.03;3725223;37;19980;-54
2022/02/26 02:49:13;;;;;;;;;22.75;22.00;;;;;4.31;100.00;101678.81;3725413;38;19930;-56
2022/02/26 02:51:47;;;;;;;;;22.25;21.25;;;;;4.30;100.00;101682.47;3725743;37;20258;-55
2022/02/26 02:54:14;;;;;;;;;21.25;20.25;;;;;4.31;100.00;101680.66;3725682;38;19985;-54
2022/02/26 02:56:42;;;;;;;;;21.50;21.00;;;;;4.29;100.00;101688.78;3725655;38;20110;-55
2022/02/26 02:59:13;;;;;;;;;21.00;20.75;;;;;4.26;100.00;101675.62;3725357;37;19968;-53
2022/02/26 03:01:40;;;;;;;;;24.00;21.75;;;;;4.26;100.00;101686.34;3725717;38;20259;-56
2022/02/26 03:04:13;;;;;;;;;25.75;24.25;;;;;4.28;100.00;101689.78;3725498;38;19917;-56
2022/02/26 03:06:43;;;;;;;;;22.00;21.50;;;;;4.24;100.00;101692.78;3725462;37;20028;-53
2022/02/26 03:09:11;;;;;;;;;26.50;26.00;;;;;4.22;100.00;101700.94;3725685;37;20263;-54
2022/02/26 03:11:38;;;;;;;;;23.75;22.50;;;;;4.25;100.00;101705.22;3725686;37;19802;-54
2022/02/26 03:14:07;;;;;;;;;25.75;22.50;;;;;4.22;100.00;101706.31;3725765;38;19828;-55
2022/02/26 03:16:35;;;;;;;;;22.00;20.00;;;;;4.15;100.00;101705.09;3725685;38;19911;-55
2022/02/26 03:19:04;;;;;;;;;25.25;23.75;;;;;4.18;100.00;101720.03;3725707;38;19885;-55
2022/02/26 03:21:35;;;;;;;;;22.00;21.75;;;;;4.15;100.00;101713.12;3725702;38;20150;-57
2022/02/26 03:24:06;;;;;;;;;21.00;19.25;;;;;4.20;100.00;101724.31;3725837;37;19843;-54
2022/02/26 03:26:33;;;;;;;;;23.75;20.50;;;;;4.24;100.00;101716.91;3725599;37;19924;-55
2022/02/26 03:29:01;;;;;;;;;21.00;20.25;;;;;4.21;100.00;101727.84;3725673;38;20186;-55
2022/02/26 03:31:29;;;;;;;;;20.50;18.75;;;;;4.20;100.00;101732.34;3725840;38;19885;-54
2022/02/26 03:33:57;;;;;;;;;21.50;20.00;;;;;4.18;100.00;101733.44;3726289;37;20216;-54
2022/02/26 03:36:34;;;;;;;;;19.25;18.25;;;;;4.16;100.00;101732.72;3725690;37;19986;-56
2022/02/26 03:39:04;;;;;;;;;20.00;19.75;;;;;4.12;100.00;101724.06;3725948;37;19786;-55
2022/02/26 03:41:32;;;;;;;;;19.75;18.25;;;;;4.19;100.00;101744.03;3725455;37;19815;-56
2022/02/26 03:44:03;;;;;;;;;18.25;17.25;;;;;4.16;100.00;101738.91;3725492;37;19782;-56
2022/02/26 03:46:31;;;;;;;;;29.25;26.25;;;;;4.20;100.00;101750.25;3725737;37;20278;-58
2022/02/26 03:49:03;;;;;;;;;34.00;32.25;;;;;4.16;100.00;101751.47;3725915;38;20188;-56
2022/02/26 03:51:38;;;;;;;;;30.75;29.25;;;;;4.15;100.00;101752.44;3725569;38;19912;-55
2022/02/26 03:54:07;;;;;;;;;21.50;21.50;;;;;4.17;100.00;101755.84;3725583;38;19814;-54
2022/02/26 03:56:36;;;;;;;;;19.00;17.25;;;;;4.19;100.00;101767.31;3725740;37;19838;-54
2022/02/26 03:59:03;;;;;;;;;20.50;20.00;;;;;4.19;100.00;101756.59;3725759;38;19913;-56
2022/02/26 04:01:31;;;;;;;;;18.00;18.00;;;;;4.12;100.00;101756.22;3725840;38;19756;-54
2022/02/26 04:04:00;;;;;;;;;24.00;21.50;;;;;4.14;100.00;101764.12;3725812;37;19941;-54
2022/02/26 04:06:27;;;;;;;;;18.00;17.25;;;;;4.10;100.00;101766.19;3726004;38;19754;-54
2022/02/26 04:08:55;;;;;;;;;21.50;20.25;;;;;4.10;100.00;101768.00;3726208;37;20158;-53
2022/02/26 04:11:23;;;;;;;;;17.00;16.75;;;;;4.08;100.00;101768.13;3725828;37;19838;-56
2022/02/26 04:13:52;;;;;;;;;21.50;20.50;;;;;4.05;100.00;101771.03;3725297;37;19978;-57
2022/02/26 04:16:21;;;;;;;;;25.00;23.00;;;;;4.03;100.00;101772.94;3725576;37;20108;-54
2022/02/26 04:18:49;;;;;;;;;16.00;13.50;;;;;3.98;100.00;101773.28;3725700;37;19837;-57
2022/02/26 04:21:16;;;;;;;;;14.50;14.00;;;;;4.00;100.00;101786.56;3725586;38;20116;-55
2022/02/26 04:23:43;;;;;;;;;20.25;20.25;;;;;3.95;100.00;101791.41;3725681;38;20143;-54
2022/02/26 04:26:12;;;;;;;;;19.50;18.50;;;;;3.95;100.00;101794.06;3725690;38;19721;-54
2022/02/26 04:28:40;;;;;;;;;22.25;20.75;;;;;3.93;100.00;101807.59;3725815;37;19801;-54
2022/02/26 04:31:10;;;;;;;;;20.25;19.75;;;;;3.92;100.00;101811.22;3725737;38;20071;-56
2022/02/26 04:33:38;;;;;;;;;14.75;14.25;;;;;3.81;100.00;101788.84;3726087;38;20132;-56
2022/02/26 04:36:08;;;;;;;;;16.75;15.25;;;;;3.85;100.00;101799.25;3725837;38;19677;-55
2022/02/26 04:38:40;;;;;;;;;21.75;17.50;;;;;3.87;100.00;101815.19;3725440;38;20043;-56
2022/02/26 04:41:09;;;;;;;;;23.25;21.50;;;;;3.90;100.00;101817.66;3725466;37;20201;-55
2022/02/26 04:43:41;;;;;;;;;15.25;14.50;;;;;3.90;100.00;101823.00;3725773;38;20038;-54
2022/02/26 04:46:10;;;;;;;;;22.00;21.00;;;;;3.91;100.00;101819.38;3725625;37;19796;-55
2022/02/26 04:48:44;;;;;;;;;22.00;20.75;;;;;3.91;100.00;101830.94;3725771;37;20149;-54
2022/02/26 04:51:11;;;;;;;;;18.75;17.50;;;;;3.81;100.00;101816.50;3725579;38;19918;-54
2022/02/26 04:53:41;;;;;;;;;23.00;22.25;;;;;3.84;100.00;101832.34;3725920;37;20062;-56
2022/02/26 04:56:09;;;;;;;;;27.25;23.25;;;;;3.87;100.00;101842.84;3725616;38;20074;-54
2022/02/26 04:58:37;;;;;;;;;19.25;18.25;;;;;3.88;100.00;101846.38;3725801;37;19733;-55
2022/02/26 05:01:12;;;;;;;;;25.75;21.75;;;;;3.87;100.00;101844.66;3725579;37;20990;-54
2022/02/26 05:03:41;;;;;;;;;14.75;13.75;;;;;3.89;100.00;101848.09;3725774;38;20159;-54
2022/02/26 05:06:09;;;;;;;;;22.00;18.75;;;;;3.88;100.00;101849.91;3725433;37;19653;-56
2022/02/26 05:08:38;;;;;;;;;20.00;16.75;;;;;3.78;100.00;101843.47;3725374;38;21098;-55
2022/02/26 05:11:32;;;;;;;;;17.50;16.25;;;;;3.79;100.00;101849.69;3725727;38;20661;-54
2022/02/26 05:13:59;;;;;;;;;18.75;16.75;;;;;3.85;100.00;101865.31;3725589;37;20102;-53
2022/02/26 05:16:29;;;;;;;;;16.50;15.25;;;;;3.91;100.00;101876.47;3725794;37;20769;-56
2022/02/26 05:18:59;;;;;;;;;21.00;20.00;;;;;3.87;100.00;101874.97;3725327;38;20764;-56
2022/02/26 05:21:28;;;;;;;;;24.00;23.25;;;;;3.87;100.00;101874.13;3725345;37;20662;-54
2022/02/26 05:23:55;;;;;;;;;18.50;17.75;;;;;3.91;100.00;101889.00;3725357;37;21048;-57
2022/02/26 05:26:24;;;;;;;;;19.00;18.00;;;;;3.78;100.00;101886.31;3725557;37;20766;-55
2022/02/26 05:28:53;;;;;;;;;23.00;21.75;;;;;3.76;100.00;101890.94;3725733;37;20898;-57
2022/02/26 05:31:22;;;;;;;;;20.25;19.50;;;;;3.83;100.00;101886.00;3725793;38;20743;-55
2022/02/26 05:33:49;;;;;;;;;19.75;18.75;;;;;3.84;100.00;101909.13;3725596;37;20725;-56
2022/02/26 05:36:18;;;;;;;;;19.75;15.25;;;;;3.81;100.00;101898.63;3725732;37;20745;-55
2022/02/26 05:38:47;;;;;;;;;22.75;22.00;;;;;3.86;100.00;101892.00;3725667;38;20997;-53
2022/02/26 05:41:17;;;;;;;;;20.00;19.25;;;;;3.85;100.00;101898.31;3725404;37;20737;-56
2022/02/26 05:43:46;;;;;;;;;22.00;20.00;;;;;3.86;100.00;101893.81;3725509;37;20726;-53
2022/02/26 05:46:17;;;;;;;;;19.00;18.25;;;;;3.90;100.00;101900.69;3725571;38;20997;-55
2022/02/26 05:48:48;;;;;;;;;20.50;20.00;;;;;3.91;100.00;101900.56;3725436;37;20694;-54
2022/02/26 05:51:17;;;;;;;;;22.75;19.50;;;;;3.95;100.00;101907.44;3725721;38;20946;-56
2022/02/26 05:53:47;;;;;;;;;22.25;21.75;;;;;3.94;100.00;101910.22;3725429;37;20599;-57
2022/02/26 05:56:17;;;;;;;;;22.50;21.50;;;;;3.99;100.00;101914.28;3725522;37;20963;-54
2022/02/26 05:58:45;;;;;;;;;22.75;20.25;;;;;4.06;100.00;101914.72;3725373;38;21027;-56
2022/02/26 06:01:14;;;;;;;;;18.25;15.25;;;;;4.07;100.00;101916.44;3725482;38;20578;-56
2022/02/26 06:03:43;;;;;;;;;26.25;23.00;;;;;4.08;100.00;101909.25;3725505;37;20890;-56
2022/02/26 06:06:10;;;;;;;;;23.00;19.75;;;;;4.05;100.00;101926.41;3726287;38;20685;-57
2022/02/26 06:08:38;;;;;;;;;22.50;22.50;;;;;4.14;100.00;101920.38;3726169;37;20565;-54
2022/02/26 06:11:08;;;;;;;;;23.00;21.50;;;;;4.14;100.00;101919.53;3725837;38;20894;-56
2022/02/26 06:13:38;;;;;;;;;20.50;18.50;;;;;4.14;100.00;101915.03;3725657;37;21004;-58
2022/02/26 06:16:09;;;;;;;;;19.50;17.25;;;;;4.12;100.00;101921.47;3725964;37;20683;-60
2022/02/26 06:18:41;;;;;;;;;21.75;21.25;;;;;4.12;100.00;101918.78;3725786;38;20560;-58
2022/02/26 06:21:16;;;;;;;;;25.00;23.75;;;;;4.07;100.00;101932.50;3725792;37;20568;-57
2022/02/26 06:23:45;;;;;;;;;19.50;18.50;;;;;4.16;100.00;101936.34;3725591;38;20972;-58
2022/02/26 06:26:13;;;;;;;;;23.75;23.00;;;;;4.23;100.00;101929.56;3725826;37;20968;-56
2022/02/26 06:28:42;;;;;;;;;19.50;19.50;;;;;4.32;100.00;101942.31;3725783;38;20591;-56
2022/02/26 06:31:17;;;;;;;;;20.00;19.25;;;;;4.42;100.00;101934.47;3725598;38;20880;-57
2022/02/26 06:33:47;;;;;;;;;17.50;17.50;;;;;4.46;100.00;101944.00;3725717;37;20620;-56
2022/02/26 06:36:15;;;;;;;;;21.25;21.00;;;;;4.39;100.00;101946.28;3725736;38;20758;-55
2022/02/26 06:38:42;;;;;;;;;26.25;24.50;;;;;4.37;100.00;101952.72;3725726;38;20760;-55
2022/02/26 06:41:11;;;;;;;;;25.25;21.75;;;;;4.42;100.00;101954.09;3725776;37;20669;-56
2022/02/26 06:43:39;;;;;;;;;25.25;21.50;;;;;4.45;100.00;101964.59;3725731;38;20945;-54
2022/02/26 06:46:08;;;;;;;;;23.75;21.50;;;;;4.46;100.00;101960.09;3725627;37;20557;-54
2022/02/26 06:48:37;;;;;;;;;21.25;19.00;;;;;4.42;100.00;101963.97;3725394;37;20655;-58
2022/02/26 06:51:07;;;;;;;;;16.25;15.00;;;;;4.31;100.00;101968.25;3725850;37;20933;-56
2022/02/26 06:53:34;;;;;;;;;20.50;20.00;;;;;4.32;100.00;101986.06;3725638;38;20549;-55
2022/02/26 06:56:02;;;;;;;;;21.00;19.00;;;;;4.39;100.00;101972.22;3725710;37;20583;-56
2022/02/26 06:58:32;;;;;;;;;22.50;21.25;;;;;4.53;100.00;101978.31;3725449;38;20892;-56
2022/02/26 07:01:04;;;;;;;;;23.50;22.75;;;;;4.54;100.00;101984.53;3725818;38;20800;-57
2022/02/26 07:03:32;;;;;;;;;25.25;25.25;;;;;4.48;100.00;101993.00;3725870;38;20814;-56
2022/02/26 07:05:59;;;;;;;;;25.75;21.00;;;;;4.42;100.00;101996.97;3725708;37;20616;-56
2022/02/26 07:08:27;;;;;;;;;21.50;21.50;;;;;4.39;100.00;101972.22;3725548;37;20865;-56
2022/02/26 07:10:57;;;;;;;;;28.25;27.50;;;;;4.65;100.00;101993.53;3725529;37;20907;-58
2022/02/26 07:13:24;;;;;;;;;22.25;19.25;;;;;4.80;100.00;101996.91;3725337;37;20970;-55
2022/02/26 07:15:52;;;;;;;;;21.00;21.00;;;;;4.90;100.00;101994.41;3725729;38;20571;-56
2022/02/26 07:18:21;;;;;;;;;25.25;25.00;;;;;4.84;100.00;101984.12;3725727;37;20958;-56
2022/02/26 07:20:49;;;;;;;;;22.00;21.75;;;;;4.95;100.00;101997.62;3725794;38;20625;-55
2022/02/26 07:23:17;;;;;;;;;16.50;16.00;;;;;5.04;100.00;101988.03;3725675;37;20918;-55
2022/02/26 07:25:45;;;;;;;;;21.75;19.50;;;;;5.20;100.00;101986.75;3725705;37;20499;-57
2022/02/26 07:28:15;;;;;;;;;22.50;19.25;;;;;5.23;100.00;101991.03;3725395;37;20916;-56
2022/02/26 07:30:43;;;;;;;;;20.00;18.75;;;;;5.24;100.00;102006.19;3725678;37;20566;-55
2022/02/26 07:33:12;;;;;;;;;19.75;18.75;;;;;5.39;100.00;101994.31;3725804;37;20767;-56
2022/02/26 07:35:39;;;;;;;;;16.75;16.50;;;;;5.38;100.00;101992.59;3725680;37;20765;-59
2022/02/26 07:38:06;;;;;;;;;22.00;21.50;;;;;5.38;100.00;102007.84;3725786;38;20905;-55
2022/02/26 07:40:36;;;;;;;;;18.00;15.50;;;;;5.42;100.00;101995.91;3725654;37;20884;-59
2022/02/26 07:43:03;;;;;;;;;20.75;19.50;;;;;5.38;100.00;101991.72;3725818;37;20858;-55
2022/02/26 07:45:33;;;;;;;;;18.00;16.00;;;;;5.36;100.00;102013.31;3725495;38;20537;-58
2022/02/26 07:48:01;;;;;;;;;29.50;27.75;;;;;5.22;100.00;102014.34;3724843;37;20446;-58
2022/02/26 07:50:30;;;;;;;;;22.00;21.25;;;;;5.32;100.00;102014.53;3724843;37;20910;-58
2022/02/26 07:52:58;;;;;;;;;24.50;23.50;;;;;5.39;100.00;102018.47;3724723;38;20858;-56
2022/02/26 07:55:27;;;;;;;;;24.25;24.25;;;;;5.42;100.00;102020.06;3724835;38;20676;-57
2022/02/26 07:57:56;;;;;;;;;26.00;24.25;;;;;5.37;100.00;102011.50;3725011;37;20694;-58
2022/02/26 08:00:25;;;;;;;;;25.75;24.25;;;;;5.36;100.00;102026.75;3725304;37;20547;-57
2022/02/26 08:02:53;;;;;;;;;27.50;24.00;;;;;5.42;100.00;102020.94;3725845;38;20432;-57
2022/02/26 08:05:21;;;;;;;;;32.75;28.75;;;;;5.44;100.00;102010.06;3725695;38;20511;-57
2022/02/26 08:07:49;;;;;;;;;20.25;20.25;;;;;5.44;100.00;102013.63;3725602;37;20408;-60
2022/02/26 08:10:18;;;;;;;;;23.75;22.75;;;;;5.59;100.00;102016.97;3725729;37;20437;-58
2022/02/26 08:12:47;;;;;;;;;21.50;20.25;;;;;5.58;100.00;101996.47;3725798;37;20541;-58
2022/02/26 08:15:20;;;;;;;;;23.50;22.50;;;;;5.74;100.00;102018.47;3725690;37;20814;-58
2022/02/26 08:17:50;;;;;;;;;33.25;29.50;;;;;5.76;100.00;102019.22;3725433;38;20418;-58
2022/02/26 08:20:18;;;;;;;;;21.25;19.25;;;;;5.69;100.00;102019.84;3725701;37;20422;-58
2022/02/26 08:22:46;;;;;;;;;26.75;25.25;;;;;5.73;100.00;102027.50;3725661;37;20415;-60
2022/02/26 08:25:15;;;;;;;;;21.50;19.75;;;;;5.92;100.00;102027.00;3725819;37;20408;-58
2022/02/26 08:27:46;;;;;;;;;21.25;20.50;;;;;5.90;100.00;102024.44;3725388;37;20511;-57
2022/02/26 08:30:16;;;;;;;;;20.25;19.25;;;;;5.90;100.00;102029.81;3725783;37;20525;-58
2022/02/26 08:32:45;;;;;;;;;25.00;23.50;;;;;6.07;100.00;102023.13;3726075;37;20498;-58
2022/02/26 08:35:14;;;;;;;;;22.00;20.50;;;;;5.92;100.00;102035.06;3725782;37;20511;-58
2022/02/26 08:37:43;;;;;;;;;21.25;21.25;;;;;6.21;100.00;102031.00;3725603;38;20410;-59
2022/02/26 08:40:11;;;;;;;;;25.25;21.25;;;;;6.33;100.00;102031.84;3725949;37;20792;-58
2022/02/26 08:42:39;;;;;;;;;21.50;20.75;;;;;6.19;100.00;102042.84;3726607;37;20503;-61
2022/02/26 08:45:10;;;;;;;;;20.25;17.50;;;;;6.19;100.00;102032.09;3725623;38;20477;-61
2022/02/26 08:47:40;;;;;;;;;17.00;16.50;;;;;6.35;100.00;102053.25;3725473;37;20479;-58
2022/02/26 08:50:11;;;;;;;;;21.50;19.25;;;;;6.29;100.00;102038.44;3725484;38;20626;-58
2022/02/26 08:52:40;;;;;;;;;19.50;18.75;;;;;6.38;100.00;102036.87;3725927;37;20368;-57
2022/02/26 08:55:15;;;;;;;;;18.50;15.50;;;;;6.35;100.00;102046.03;3727935;38;20798;-58
2022/02/26 08:57:50;;;;;;;;;23.75;20.25;;;;;6.38;100.00;102053.00;3725454;37;20842;-59
2022/02/26 09:00:17;;;;;;;;;23.00;23.00;;;;;6.29;100.00;102060.81;3725772;37;20620;-58
2022/02/26 09:02:49;;;;;;;;;24.00;22.25;;;;;6.19;100.00;102061.66;3725505;38;20722;-58
2022/02/26 09:05:17;;;;;;;;;18.50;17.50;;;;;6.27;100.00;102054.69;3725413;37;20829;-58
2022/02/26 09:07:44;;;;;;;;;21.00;20.25;;;;;6.51;100.00;102057.31;3725594;38;20426;-57
2022/02/26 09:10:13;;;;;;;;;20.75;20.00;;;;;6.63;100.00;102059.03;3725749;38;20731;-58
2022/02/26 09:12:41;;;;;;;;;17.50;17.50;;;;;6.65;100.00;102083.12;3725480;37;20455;-58
2022/02/26 09:15:12;;;;;;;;;17.25;16.25;;;;;6.56;100.00;102049.72;3726014;38;20373;-57
2022/02/26 09:17:39;;;;;;;;;26.50;24.50;;;;;6.63;100.00;102067.09;3725789;38;20405;-60
2022/02/26 09:20:08;;;;;;;;;17.50;17.25;;;;;6.67;100.00;102064.16;3725577;37;20324;-58
2022/02/26 09:22:37;;;;;;;;;15.25;14.00;;;;;6.74;100.00;102070.78;3726248;38;20443;-58
2022/02/26 09:25:14;;;;;;;;;19.00;16.50;;;;;6.58;100.00;102049.59;3725179;38;20740;-65
2022/02/26 09:27:43;;;;;;;;;19.25;18.00;;;;;6.54;100.00;102062.44;3724085;37;20777;-58
2022/02/26 09:30:13;;;;;;;;;22.50;21.75;;;;;6.46;100.00;102064.88;3724568;38;20315;-59
2022/02/26 09:32:42;;;;;;;;;25.00;23.75;;;;;6.59;100.00;102059.38;3724721;38;20437;-59
2022/02/26 09:35:11;;;;;;;;;19.00;18.75;;;;;6.72;100.00;102057.44;3725048;38;20686;-57
2022/02/26 09:37:39;;;;;;;;;20.50;18.50;;;;;6.87;100.00;102058.88;3725207;38;20631;-55
2022/02/26 09:40:08;;;;;;;;;16.00;13.75;;;;;6.94;100.00;102060.09;3725431;38;20299;-56
2022/02/26 09:42:39;;;;;;;;;17.50;16.50;;;;;6.91;100.00;102067.56;3725080;37;20747;-58
2022/02/26 09:45:08;;;;;;;;;18.75;17.50;;;;;7.06;100.00;102066.34;3725293;37;20384;-57
2022/02/26 09:47:47;;;;;;;;;20.00;18.50;;;;;7.07;100.00;102073.44;3724970;38;20289;-56
2022/02/26 09:50:21;;;;;;;;;26.00;23.50;;;;;6.73;100.00;102080.69;3724920;38;20593;-56
2022/02/26 09:52:53;;;;;;;;;25.75;24.75;;;;;7.00;100.00;102066.84;3724757;38;20593;-58
2022/02/26 09:55:21;;;;;;;;;19.75;16.25;;;;;7.00;100.00;102071.34;3724478;38;20614;-58
2022/02/26 09:57:48;;;;;;;;;16.50;15.75;;;;;7.09;100.00;102065.22;3725091;37;20292;-56
2022/02/26 10:00:18;;;;;;;;;18.00;17.50;;;;;7.19;100.00;102075.13;3725319;37;20283;-56
2022/02/26 10:02:54;;;;;;;;;17.75;16.75;;;;;7.34;100.00;102074.84;3725207;38;20712;-60
2022/02/26 10:05:22;;;;;;;;;20.00;19.25;;;;;7.24;100.00;102074.75;3725147;38;20548;-56
2022/02/26 10:07:52;;;;;;;;;19.25;18.50;;;;;7.30;100.00;102072.41;3725331;38;20394;-57
2022/02/26 10:10:29;;;;;;;;;15.75;15.75;;;;;7.11;100.00;102052.50;3725105;37;20387;-55
2022/02/26 10:13:00;;;;;;;;;16.25;15.50;;;;;7.37;100.00;102078.16;3725034;37;20390;-56
2022/02/26 10:15:38;;;;;;;;;19.25;17.25;;;;;7.53;100.00;102075.03;3725159;37;20579;-55
2022/02/26 10:18:11;;;;;;;;;11.00;11.00;;;;;7.67;100.00;102068.53;3725487;38;20264;-55
2022/02/26 10:20:59;;;;;;;;;16.50;16.25;;;;;7.85;100.00;102064.25;3725398;37;20222;-56
2022/02/26 10:23:43;;;;;;;;;22.75;21.00;;;;;7.85;100.00;102075.91;3725150;38;20313;-56
2022/02/26 10:26:13;;;;;;;;;17.25;16.25;;;;;7.95;100.00;102062.50;3724997;37;20368;-58
2022/02/26 10:28:41;;;;;;;;;21.25;21.25;;;;;7.85;100.00;102072.34;3725693;37;20514;-55
2022/02/26 10:31:11;;;;;;;;;18.00;17.75;;;;;7.89;100.00;102060.31;3725552;37;20309;-57
2022/02/26 10:33:39;;;;;;;;;19.50;17.25;;;;;8.13;100.00;102058.25;3725218;37;20658;-57
2022/02/26 10:36:09;;;;;;;;;17.75;16.75;;;;;8.18;100.00;102071.34;3725420;37;20207;-55
2022/02/26 10:38:38;;;;;;;;;17.75;17.25;;;;;8.10;100.00;102073.81;3725297;37;20378;-56
2022/02/26 10:41:13;;;;;;;;;16.25;16.25;;;;;8.07;100.00;102069.56;3724475;37;20582;-57
2022/02/26 10:43:56;;;;;;;;;13.50;13.00;;;;;8.34;100.00;102060.09;3725232;37;20235;-55
2022/02/26 10:46:31;;;;;;;;;16.00;15.25;;;;;8.44;100.00;102061.88;3725259;37;20579;-56
2022/02/26 10:49:09;;;;;;;;;18.75;18.00;;;;;8.32;100.00;102076.38;3725262;37;20321;-58
2022/02/26 10:51:38;;;;;;;;;13.25;11.75;;;;;8.42;100.00;102050.34;3725335;37;20369;-56
2022/02/26 10:54:25;;;;;;;;;10.00;9.75;;;;;8.52;100.00;102066.59;3725316;37;20517;-55
2022/02/26 10:57:00;;;;;;;;;8.75;8.50;;;;;8.38;100.00;102062.41;3725194;37;20314;-55
2022/02/26 10:59:41;;;;;;;;;15.25;14.25;;;;;8.41;100.00;102050.47;3725067;37;20288;-58
2022/02/26 11:02:16;;;;;;;;;15.00;13.75;;;;;8.19;100.00;102070.34;3724307;38;20209;-55
2022/02/26 11:04:44;;;;;;;;;10.50;9.50;;;;;8.24;100.00;102087.00;3724589;37;20640;-58
2022/02/26 11:07:13;;;;;;;;;15.50;13.50;;;;;8.30;100.00;102064.91;3725094;38;20246;-57
2022/02/26 11:09:45;;;;;;;;;14.75;13.75;;;;;8.30;100.00;102054.09;3725505;37;20477;-56
2022/02/26 11:12:13;;;;;;;;;13.00;12.00;;;;;8.11;100.00;102062.06;3725427;37;20244;-58
2022/02/26 11:14:48;;;;;;;;;11.00;9.75;;;;;8.08;100.00;102052.38;3725338;37;20290;-57
2022/02/26 11:17:17;;;;;;;;;10.00;8.50;;;;;8.22;100.00;102057.47;3725885;37;20189;-57
2022/02/26 11:19:48;;;;;;;;;14.00;13.00;;;;;8.24;100.00;102063.59;3725622;37;20145;-59
2022/02/26 11:22:16;;;;;;;;;12.75;11.75;;;;;8.14;100.00;102068.03;3725389;37;20599;-57
2022/02/26 11:24:47;;;;;;;;;12.25;12.25;;;;;8.07;100.00;102079.47;3725445;38;20169;-61